createdAt,value
2023-02-16T00:00:17.739Z,2.70
2023-02-16T00:02:44.977Z,2.45
2023-02-16T00:05:38.237Z,2.42
2023-02-16T00:08:05.566Z,2.83
2023-02-16T00:10:35.268Z,2.55
2023-02-16T00:13:21.792Z,2.67
2023-02-16T00:15:48.783Z,2.35
2023-02-16T00:18:21.071Z,2.85
2023-02-16T00:20:49.301Z,2.90
2023-02-16T00:23:16.641Z,3.35
2023-02-16T00:25:44.078Z,2.63
2023-02-16T00:28:20.383Z,1.98
2023-02-16T00:30:48.546Z,2.03
2023-02-16T00:33:20.854Z,2.60
2023-02-16T00:35:48.474Z,2.20
2023-02-16T00:38:16.643Z,2.87
2023-02-16T00:40:43.830Z,2.60
2023-02-16T00:43:26.197Z,2.25
2023-02-16T00:45:53.915Z,2.40
2023-02-16T00:48:21.842Z,2.30
2023-02-16T00:50:49.218Z,2.60
2023-02-16T00:53:18.237Z,2.15
2023-02-16T00:55:45.625Z,2.03
2023-02-16T00:58:27.482Z,2.55
2023-02-16T01:01:09.736Z,2.20
2023-02-16T01:03:37.468Z,2.20
2023-02-16T01:06:23.978Z,2.17
2023-02-16T01:09:09.370Z,2.20
2023-02-16T01:11:36.500Z,2.20
2023-02-16T01:14:03.575Z,2.28
2023-02-16T01:16:38.694Z,2.23
2023-02-16T01:19:05.940Z,2.42
2023-02-16T01:21:32.984Z,2.80
2023-02-16T01:24:02.061Z,2.25
2023-02-16T01:26:30.419Z,2.53
2023-02-16T01:28:57.452Z,2.20
2023-02-16T01:31:24.567Z,2.35
2023-02-16T01:33:51.676Z,2.35
2023-02-16T01:36:29.826Z,2.85
2023-02-16T01:38:56.842Z,2.90
2023-02-16T01:41:48.752Z,2.30
2023-02-16T01:44:21.434Z,2.72
2023-02-16T01:46:53.309Z,2.25
2023-02-16T01:49:21.138Z,2.50
2023-02-16T01:51:48.096Z,2.65
2023-02-16T01:54:33.796Z,2.87
2023-02-16T01:57:09.137Z,2.08
2023-02-16T02:00:05.285Z,2.58
2023-02-16T02:03:35.154Z,2.47
2023-02-16T02:06:02.311Z,2.67
2023-02-16T02:09:06.615Z,3.33
2023-02-16T02:11:41.944Z,3.33
2023-02-16T02:14:14.963Z,2.70
2023-02-16T02:17:03.032Z,2.13
2023-02-16T02:19:56.081Z,2.50
2023-02-16T02:23:10.779Z,2.30
2023-02-16T02:26:02.482Z,2.63
2023-02-16T02:28:45.595Z,2.60
2023-02-16T02:31:35.696Z,3.05
2023-02-16T02:34:11.346Z,2.70
2023-02-16T02:36:50.271Z,2.77
2023-02-16T02:40:06.020Z,2.58
2023-02-16T02:42:51.679Z,2.63
2023-02-16T02:45:25.194Z,2.92
2023-02-16T02:47:52.970Z,3.00
2023-02-16T02:51:10.650Z,2.97
2023-02-16T02:54:44.237Z,2.63
2023-02-16T02:57:40.128Z,2.83
2023-02-16T03:00:35.393Z,2.20
2023-02-16T03:03:09.609Z,2.90
2023-02-16T03:05:39.279Z,3.00
2023-02-16T03:08:17.624Z,2.97
2023-02-16T03:11:12.372Z,2.95
2023-02-16T03:13:46.123Z,2.63
2023-02-16T03:16:31.789Z,2.70
2023-02-16T03:19:18.347Z,2.60
2023-02-16T03:22:04.679Z,2.75
2023-02-16T03:24:51.739Z,3.10
2023-02-16T03:27:43.537Z,3.10
2023-02-16T03:30:12.952Z,3.10
2023-02-16T03:32:41.777Z,3.17
2023-02-16T03:35:12.868Z,3.28
2023-02-16T03:37:41.000Z,3.95
2023-02-16T03:40:29.308Z,2.78
2023-02-16T03:42:58.813Z,3.33
2023-02-16T03:45:26.643Z,3.10
2023-02-16T03:47:54.953Z,3.22
2023-02-16T03:50:22.260Z,4.10
2023-02-16T03:52:49.435Z,4.00
2023-02-16T03:55:16.619Z,2.78
2023-02-16T03:57:44.630Z,3.40
2023-02-16T04:00:12.231Z,3.50
2023-02-16T04:02:43.439Z,3.40
2023-02-16T04:05:10.548Z,3.17
2023-02-16T04:07:37.578Z,3.10
2023-02-16T04:10:04.896Z,2.87
2023-02-16T04:12:37.781Z,3.58
2023-02-16T04:15:15.016Z,3.20
2023-02-16T04:17:42.251Z,3.67
2023-02-16T04:20:12.222Z,3.00
2023-02-16T04:22:39.469Z,3.03
2023-02-16T04:25:07.752Z,3.35
2023-02-16T04:27:35.859Z,3.38
2023-02-16T04:30:05.610Z,2.83
2023-02-16T04:32:32.863Z,3.47
2023-02-16T04:34:59.987Z,3.23
2023-02-16T04:37:27.002Z,3.10
2023-02-16T04:39:54.088Z,3.00
2023-02-16T04:42:21.136Z,2.80
2023-02-16T04:44:48.193Z,2.90
2023-02-16T04:47:15.437Z,2.73
2023-02-16T04:49:42.498Z,2.72
2023-02-16T04:52:11.302Z,2.97
2023-02-16T04:54:38.383Z,2.72
2023-02-16T04:57:05.626Z,2.72
2023-02-16T04:59:32.560Z,2.70
2023-02-16T05:01:59.602Z,2.28
2023-02-16T05:04:26.728Z,2.67
2023-02-16T05:06:53.761Z,3.00
2023-02-16T05:09:25.504Z,2.60
2023-02-16T05:12:11.034Z,3.60
2023-02-16T05:14:49.843Z,3.53
2023-02-16T05:17:21.320Z,2.75
2023-02-16T05:19:51.363Z,2.78
2023-02-16T05:22:19.101Z,3.28
2023-02-16T05:24:46.474Z,2.97
2023-02-16T05:27:16.764Z,3.80
2023-02-16T05:29:43.838Z,3.22
2023-02-16T05:32:11.362Z,3.45
2023-02-16T05:34:38.546Z,3.40
2023-02-16T05:37:06.296Z,3.20
2023-02-16T05:39:33.388Z,3.38
2023-02-16T05:42:00.588Z,3.17
2023-02-16T05:44:27.686Z,3.20
2023-02-16T05:46:54.813Z,3.50
2023-02-16T05:49:22.216Z,3.40
2023-02-16T05:51:49.668Z,3.38
2023-02-16T05:54:19.503Z,3.30
2023-02-16T05:56:49.697Z,3.47
2023-02-16T05:59:17.746Z,3.45
2023-02-16T06:01:50.598Z,2.80
2023-02-16T06:04:19.019Z,3.40
2023-02-16T06:06:46.107Z,3.00
2023-02-16T06:09:13.078Z,3.00
2023-02-16T06:11:40.342Z,3.10
2023-02-16T06:14:10.938Z,3.80
2023-02-16T06:16:40.148Z,3.13
2023-02-16T06:19:17.474Z,3.28
2023-02-16T06:21:44.743Z,3.10
2023-02-16T06:24:13.758Z,4.10
2023-02-16T06:26:41.905Z,3.23
2023-02-16T06:29:09.526Z,3.35
2023-02-16T06:31:37.141Z,3.60
2023-02-16T06:34:05.140Z,3.15
2023-02-16T06:36:32.769Z,4.97
2023-02-16T06:39:00.313Z,3.50
2023-02-16T06:41:37.899Z,3.58
2023-02-16T06:44:07.579Z,3.28
2023-02-16T06:46:35.059Z,3.50
2023-02-16T06:49:02.126Z,3.13
2023-02-16T06:51:29.775Z,3.40
2023-02-16T06:53:56.893Z,3.33
2023-02-16T06:56:24.176Z,3.47
2023-02-16T06:58:51.642Z,3.47
2023-02-16T07:01:23.301Z,3.05
2023-02-16T07:03:52.497Z,3.20
2023-02-16T07:06:20.618Z,3.35
2023-02-16T07:08:47.839Z,3.30
2023-02-16T07:11:15.600Z,3.35
2023-02-16T07:13:42.753Z,3.30
2023-02-16T07:16:10.438Z,3.20
2023-02-16T07:18:37.515Z,4.18
2023-02-16T07:21:05.844Z,3.45
2023-02-16T07:23:34.189Z,3.65
2023-02-16T07:26:01.270Z,3.60
2023-02-16T07:28:28.416Z,4.20
2023-02-16T07:30:55.572Z,4.40
2023-02-16T07:33:22.690Z,3.92
2023-02-16T07:35:50.394Z,4.13
2023-02-16T07:38:17.499Z,3.75
2023-02-16T07:40:44.485Z,4.20
2023-02-16T07:43:11.560Z,4.20
2023-02-16T07:45:38.688Z,4.00
2023-02-16T07:48:06.022Z,4.55
2023-02-16T07:50:33.128Z,4.47
2023-02-16T07:53:02.860Z,5.00
2023-02-16T07:55:30.645Z,4.70
2023-02-16T07:57:57.735Z,3.75
2023-02-16T08:00:24.961Z,4.25
2023-02-16T08:02:52.910Z,4.00
2023-02-16T08:05:20.156Z,4.27
2023-02-16T08:07:47.942Z,4.75
2023-02-16T08:10:15.854Z,4.15
2023-02-16T08:12:43.282Z,4.32
2023-02-16T08:15:11.841Z,4.50
2023-02-16T08:17:39.243Z,4.50
2023-02-16T08:20:07.936Z,4.53
2023-02-16T08:22:36.107Z,4.47
2023-02-16T08:25:03.564Z,5.07
2023-02-16T08:27:31.864Z,4.70
2023-02-16T08:29:58.891Z,5.20
2023-02-16T08:32:26.760Z,4.97
2023-02-16T08:34:53.845Z,5.22
2023-02-16T08:37:20.893Z,5.07
2023-02-16T08:39:49.256Z,5.63
2023-02-16T08:42:16.300Z,5.27
2023-02-16T08:44:43.532Z,4.97
2023-02-16T08:47:11.090Z,6.38
2023-02-16T08:49:39.497Z,4.90
2023-02-16T08:52:06.877Z,5.18
2023-02-16T08:54:34.734Z,5.50
2023-02-16T08:57:03.207Z,4.63
2023-02-16T08:59:31.284Z,5.05
2023-02-16T09:01:59.474Z,9.98
2023-02-16T09:04:29.063Z,6.00
2023-02-16T09:06:58.534Z,6.03
2023-02-16T09:09:26.577Z,5.45
2023-02-16T09:11:54.253Z,6.25
2023-02-16T09:14:23.335Z,5.88
2023-02-16T09:16:50.577Z,6.28
2023-02-16T09:19:20.733Z,5.57
2023-02-16T09:21:51.124Z,4.88
2023-02-16T09:24:19.293Z,5.53
2023-02-16T09:26:46.510Z,5.50
2023-02-16T09:29:14.183Z,5.07
2023-02-16T09:31:42.693Z,6.00
2023-02-16T09:34:22.148Z,6.85
2023-02-16T09:36:50.517Z,5.30
2023-02-16T09:39:17.912Z,5.20
2023-02-16T09:42:06.063Z,4.88
2023-02-16T09:44:45.958Z,5.10
2023-02-16T09:47:42.205Z,5.65
2023-02-16T09:50:50.294Z,5.35
2023-02-16T09:53:29.062Z,4.95
2023-02-16T09:56:18.818Z,5.72
2023-02-16T09:58:54.450Z,5.20
2023-02-16T10:01:32.018Z,5.72
2023-02-16T10:04:26.588Z,6.30
2023-02-16T10:07:17.013Z,4.65
2023-02-16T10:09:49.322Z,5.15
2023-02-16T10:12:22.438Z,4.73
2023-02-16T10:15:16.492Z,4.90
2023-02-16T10:17:56.997Z,4.97
2023-02-16T10:20:32.943Z,4.70
2023-02-16T10:23:37.060Z,4.65
2023-02-16T10:26:18.090Z,5.33
2023-02-16T10:28:47.048Z,4.13
2023-02-16T10:31:20.342Z,4.93
2023-02-16T10:33:53.671Z,4.28
2023-02-16T10:36:42.062Z,4.63
2023-02-16T10:39:36.156Z,5.00
2023-02-16T10:42:18.434Z,4.15
2023-02-16T10:44:57.028Z,3.95
2023-02-16T10:47:27.081Z,3.60
2023-02-16T10:49:55.540Z,4.30
2023-02-16T10:52:26.059Z,4.57
2023-02-16T10:54:53.323Z,4.28
2023-02-16T10:57:31.443Z,4.20
2023-02-16T11:00:03.385Z,4.07
2023-02-16T11:02:47.515Z,4.00
2023-02-16T11:05:26.616Z,4.10
2023-02-16T11:08:01.715Z,4.13
2023-02-16T11:10:36.897Z,3.97
2023-02-16T11:13:04.467Z,4.47
2023-02-16T11:15:31.988Z,4.40
2023-02-16T11:18:08.200Z,4.47
2023-02-16T11:20:53.648Z,3.30
2023-02-16T11:23:25.492Z,3.97
2023-02-16T11:26:03.237Z,4.20
2023-02-16T11:28:33.140Z,4.47
2023-02-16T11:31:05.268Z,4.83
2023-02-16T11:33:34.884Z,4.10
2023-02-16T11:36:05.470Z,4.20
2023-02-16T11:38:35.681Z,5.05
2023-02-16T11:41:06.567Z,4.45
2023-02-16T11:43:37.813Z,4.03
2023-02-16T11:46:20.389Z,5.38
2023-02-16T11:48:48.235Z,5.28
2023-02-16T11:51:28.708Z,4.50
2023-02-16T11:54:05.181Z,4.07
2023-02-16T11:56:36.388Z,4.07
2023-02-16T11:59:19.392Z,4.13
2023-02-16T12:02:02.842Z,4.05
2023-02-16T12:05:08.804Z,4.43
2023-02-16T12:08:09.082Z,4.47
2023-02-16T12:10:42.437Z,4.50
2023-02-16T12:13:16.064Z,4.00
2023-02-16T12:16:22.306Z,4.70
2023-02-16T12:19:07.767Z,4.95
2023-02-16T12:21:45.574Z,5.05
2023-02-16T12:24:47.844Z,4.37
2023-02-16T12:27:37.943Z,4.95
2023-02-16T12:30:42.043Z,5.70
2023-02-16T12:33:49.561Z,5.30
2023-02-16T12:36:25.733Z,5.10
2023-02-16T12:39:12.488Z,4.67
2023-02-16T12:41:57.764Z,4.95
2023-02-16T12:44:36.780Z,5.32
2023-02-16T12:47:08.318Z,4.57
2023-02-16T12:49:47.856Z,4.90
2023-02-16T12:52:18.444Z,4.37
2023-02-16T12:54:50.747Z,4.10
2023-02-16T12:57:23.313Z,4.57
2023-02-16T13:00:04.520Z,4.75
2023-02-16T13:02:40.639Z,5.90
2023-02-16T13:05:18.485Z,4.73
2023-02-16T13:07:47.991Z,5.88
2023-02-16T13:10:57.853Z,5.22
2023-02-16T13:13:32.011Z,5.43
2023-02-16T13:16:29.893Z,4.72
2023-02-16T13:18:58.787Z,5.10
2023-02-16T13:21:53.908Z,5.40
2023-02-16T13:24:53.529Z,5.05
2023-02-16T13:27:33.095Z,4.57
2023-02-16T13:30:16.065Z,4.63
2023-02-16T13:32:50.962Z,5.40
2023-02-16T13:35:34.139Z,5.90
2023-02-16T13:38:26.962Z,5.10
2023-02-16T13:41:46.647Z,5.38
2023-02-16T13:44:21.276Z,5.88
2023-02-16T13:46:52.811Z,5.30
2023-02-16T13:49:33.957Z,5.68
2023-02-16T13:52:01.419Z,5.53
2023-02-16T13:54:35.519Z,5.95
2023-02-16T13:57:04.460Z,5.40
2023-02-16T13:59:37.416Z,5.60
2023-02-16T14:02:11.526Z,5.82
2023-02-16T14:04:38.905Z,5.65
2023-02-16T14:07:08.468Z,5.43
2023-02-16T14:09:38.456Z,5.25
2023-02-16T14:12:11.801Z,6.17
2023-02-16T14:14:53.671Z,4.97
2023-02-16T14:17:21.888Z,6.18
2023-02-16T14:20:15.170Z,5.97
2023-02-16T14:22:57.505Z,5.65
2023-02-16T14:25:24.497Z,5.80
2023-02-16T14:27:54.522Z,5.97
2023-02-16T14:30:29.103Z,6.13
2023-02-16T14:33:22.851Z,5.93
2023-02-16T14:35:58.902Z,4.95
2023-02-16T14:38:48.127Z,5.30
2023-02-16T14:41:23.997Z,5.45
2023-02-16T14:43:56.664Z,5.95
2023-02-16T14:47:05.559Z,5.38
2023-02-16T14:50:03.728Z,5.65
2023-02-16T14:53:05.254Z,5.80
2023-02-16T14:55:32.212Z,6.28
2023-02-16T14:58:02.336Z,5.90
2023-02-16T15:00:48.799Z,6.03
2023-02-16T15:03:21.668Z,6.00
2023-02-16T15:05:59.339Z,5.97
2023-02-16T15:08:34.990Z,5.78
2023-02-16T15:11:20.432Z,6.32
2023-02-16T15:13:53.545Z,6.57
2023-02-16T15:16:22.951Z,6.57
2023-02-16T15:18:53.532Z,6.10
2023-02-16T15:21:25.180Z,6.70
2023-02-16T15:23:54.925Z,6.45
2023-02-16T15:26:34.555Z,6.88
2023-02-16T15:29:23.507Z,6.82
2023-02-16T15:31:50.634Z,6.87
2023-02-16T15:34:33.443Z,6.88
2023-02-16T15:37:02.542Z,7.20
2023-02-16T15:39:45.131Z,6.20
2023-02-16T15:42:27.904Z,6.53
2023-02-16T15:44:55.681Z,6.77
2023-02-16T15:47:26.639Z,6.00
2023-02-16T15:49:54.741Z,7.28
2023-02-16T15:52:33.827Z,6.63
2023-02-16T15:55:05.586Z,6.22
2023-02-16T15:57:38.530Z,6.63
2023-02-16T16:00:22.020Z,6.70
2023-02-16T16:02:56.303Z,6.55
2023-02-16T16:05:29.847Z,8.25
2023-02-16T16:07:57.698Z,8.30
2023-02-16T16:10:28.824Z,6.90
2023-02-16T16:13:02.328Z,8.27
2023-02-16T16:15:32.736Z,9.50
2023-02-16T16:18:02.466Z,9.57
2023-02-16T16:20:38.669Z,8.43
2023-02-16T16:23:17.550Z,8.27
2023-02-16T16:25:46.954Z,8.40
2023-02-16T16:28:33.895Z,8.55
2023-02-16T16:31:13.715Z,7.40
2023-02-16T16:34:01.034Z,9.55
2023-02-16T16:37:00.534Z,8.90
2023-02-16T16:39:30.978Z,9.00
2023-02-16T16:41:58.149Z,7.82
2023-02-16T16:44:38.239Z,7.97
2023-02-16T16:47:44.648Z,8.48
2023-02-16T16:50:14.395Z,8.37
2023-02-16T16:52:50.106Z,7.28
2023-02-16T16:55:21.988Z,8.35
2023-02-16T16:57:51.742Z,9.30
2023-02-16T17:00:20.617Z,8.27
2023-02-16T17:02:48.267Z,7.87
2023-02-16T17:05:15.731Z,8.75
2023-02-16T17:07:43.438Z,7.35
2023-02-16T17:10:10.587Z,9.95
2023-02-16T17:12:37.708Z,9.60
2023-02-16T17:15:08.078Z,8.33
2023-02-16T17:17:35.368Z,9.10
2023-02-16T17:20:02.665Z,7.80
2023-02-16T17:22:30.444Z,7.95
2023-02-16T17:24:58.301Z,8.27
2023-02-16T17:27:26.122Z,8.90
2023-02-16T17:29:53.265Z,7.65
2023-02-16T17:32:23.709Z,8.13
2023-02-16T17:34:51.063Z,7.95
2023-02-16T17:37:19.638Z,8.23
2023-02-16T17:39:47.187Z,8.03
2023-02-16T17:42:14.807Z,9.13
2023-02-16T17:44:41.997Z,8.35
2023-02-16T17:47:14.679Z,8.02
2023-02-16T17:49:41.711Z,8.85
2023-02-16T17:52:12.568Z,8.87
2023-02-16T17:54:40.089Z,8.95
2023-02-16T17:57:07.170Z,11.45
2023-02-16T17:59:34.380Z,11.02
2023-02-16T18:02:01.521Z,11.63
2023-02-16T18:04:29.416Z,9.57
2023-02-16T18:06:56.528Z,10.63
2023-02-16T18:09:24.745Z,9.50
2023-02-16T18:11:52.195Z,9.23
2023-02-16T18:14:19.366Z,9.07
2023-02-16T18:16:54.513Z,9.70
2023-02-16T18:19:21.853Z,9.30
2023-02-16T18:21:49.014Z,10.13
2023-02-16T18:24:16.259Z,10.85
2023-02-16T18:26:43.848Z,10.25
2023-02-16T18:29:11.388Z,9.83
2023-02-16T18:31:40.644Z,9.52
2023-02-16T18:34:09.584Z,9.25
2023-02-16T18:36:37.705Z,9.18
2023-02-16T18:39:06.200Z,7.65
2023-02-16T18:41:33.864Z,7.97
2023-02-16T18:44:01.666Z,8.07
2023-02-16T18:46:29.307Z,9.48
2023-02-16T18:48:56.516Z,9.07
2023-02-16T18:51:26.021Z,8.60
2023-02-16T18:53:53.404Z,7.63
2023-02-16T18:56:20.659Z,7.97
2023-02-16T18:58:47.721Z,8.63
2023-02-16T19:01:17.131Z,8.93
2023-02-16T19:03:48.353Z,9.25
2023-02-16T19:06:15.543Z,8.47
2023-02-16T19:08:42.811Z,8.27
2023-02-16T19:11:09.963Z,8.23
2023-02-16T19:13:37.016Z,8.23
2023-02-16T19:16:04.554Z,7.40
2023-02-16T19:18:32.264Z,7.33
2023-02-16T19:20:59.567Z,7.78
2023-02-16T19:23:26.711Z,7.47
2023-02-16T19:25:53.948Z,8.57
2023-02-16T19:28:21.509Z,8.70
2023-02-16T19:30:49.974Z,9.07
2023-02-16T19:33:17.228Z,8.45
2023-02-16T19:35:44.299Z,9.35
2023-02-16T19:38:11.515Z,8.70
2023-02-16T19:40:39.246Z,8.13
2023-02-16T19:43:06.691Z,8.60
2023-02-16T19:45:37.452Z,9.40
2023-02-16T19:48:04.804Z,9.55
2023-02-16T19:50:32.160Z,9.27
2023-02-16T19:52:59.243Z,11.10
2023-02-16T19:55:26.293Z,10.77
2023-02-16T19:57:53.303Z,10.20
2023-02-16T20:00:20.492Z,10.63
2023-02-16T20:02:50.973Z,9.18
2023-02-16T20:05:18.173Z,9.95
2023-02-16T20:07:45.214Z,10.50
2023-02-16T20:10:12.328Z,8.90
2023-02-16T20:12:39.888Z,8.73
2023-02-16T20:15:07.199Z,8.35
2023-02-16T20:17:34.302Z,8.23
2023-02-16T20:20:01.397Z,8.63
2023-02-16T20:22:29.902Z,8.20
2023-02-16T20:24:57.240Z,8.88
2023-02-16T20:27:24.397Z,9.45
2023-02-16T20:29:51.476Z,11.25
2023-02-16T20:32:18.956Z,10.17
2023-02-16T20:34:46.163Z,9.75
2023-02-16T20:37:13.172Z,10.60
2023-02-16T20:39:40.209Z,9.25
2023-02-16T20:42:07.222Z,9.57
2023-02-16T20:44:34.213Z,9.97
2023-02-16T20:47:01.461Z,9.98
2023-02-16T20:49:28.515Z,9.73
2023-02-16T20:51:55.579Z,9.32
2023-02-16T20:54:22.619Z,8.73
2023-02-16T20:56:49.713Z,9.33
2023-02-16T20:59:16.835Z,9.32
2023-02-16T21:01:46.782Z,9.15
2023-02-16T21:04:17.390Z,9.93
2023-02-16T21:06:44.639Z,9.18
2023-02-16T21:09:12.476Z,10.23
2023-02-16T21:11:40.111Z,9.68
2023-02-16T21:14:10.369Z,9.82
2023-02-16T21:16:38.241Z,9.88
2023-02-16T21:19:11.724Z,10.35
2023-02-16T21:21:44.271Z,9.73
2023-02-16T21:24:11.424Z,9.27
2023-02-16T21:26:38.495Z,9.73
2023-02-16T21:29:05.934Z,10.30
2023-02-16T21:31:33.200Z,9.98
2023-02-16T21:34:03.056Z,10.40
2023-02-16T21:36:30.620Z,11.27
2023-02-16T21:38:57.631Z,9.77
2023-02-16T21:41:30.659Z,9.07
2023-02-16T21:44:00.877Z,10.00
2023-02-16T21:46:37.286Z,8.87
2023-02-16T21:49:06.065Z,9.57
2023-02-16T21:51:36.232Z,9.95
2023-02-16T21:54:15.477Z,9.38
2023-02-16T21:56:45.232Z,9.60
2023-02-16T21:59:15.248Z,9.60
2023-02-16T22:01:45.464Z,10.95
2023-02-16T22:04:17.884Z,11.40
2023-02-16T22:06:47.460Z,10.45
2023-02-16T22:09:20.547Z,10.73
2023-02-16T22:11:48.862Z,9.40
2023-02-16T22:14:16.528Z,10.48
2023-02-16T22:16:46.147Z,10.70
2023-02-16T22:19:15.843Z,9.88
2023-02-16T22:21:45.052Z,10.38
2023-02-16T22:24:13.996Z,10.50
2023-02-16T22:26:42.078Z,11.35
2023-02-16T22:29:09.477Z,10.35
2023-02-16T22:31:37.202Z,10.68
2023-02-16T22:34:11.892Z,9.32
2023-02-16T22:36:40.282Z,9.13
2023-02-16T22:39:07.536Z,8.82
2023-02-16T22:41:35.190Z,8.98
2023-02-16T22:44:02.278Z,9.57
2023-02-16T22:46:30.086Z,10.00
2023-02-16T22:48:58.795Z,8.87
2023-02-16T22:51:28.588Z,11.05
2023-02-16T22:53:57.440Z,11.15
2023-02-16T22:56:24.578Z,10.05
2023-02-16T22:58:51.579Z,9.30
2023-02-16T23:01:21.090Z,9.53
2023-02-16T23:03:53.676Z,7.95
2023-02-16T23:06:24.319Z,8.52
2023-02-16T23:08:53.446Z,8.02
2023-02-16T23:11:21.035Z,8.63
2023-02-16T23:13:48.163Z,7.73
2023-02-16T23:16:17.680Z,8.15
2023-02-16T23:18:45.790Z,8.25
2023-02-16T23:21:19.726Z,7.75
2023-02-16T23:23:48.925Z,8.23
2023-02-16T23:26:16.908Z,8.10
2023-02-16T23:28:44.292Z,7.20
2023-02-16T23:31:15.452Z,7.13
2023-02-16T23:33:42.685Z,7.38
2023-02-16T23:36:10.222Z,7.60
2023-02-16T23:38:37.704Z,7.57
2023-02-16T23:41:11.407Z,6.55
2023-02-16T23:43:38.836Z,6.93
2023-02-16T23:46:06.518Z,6.25
2023-02-16T23:48:34.252Z,7.35
2023-02-16T23:51:01.350Z,7.90
2023-02-16T23:53:29.056Z,7.43
2023-02-16T23:56:02.013Z,6.65
2023-02-16T23:58:31.425Z,7.53
